createdAt,value
2018-08-28T00:00:54.414Z,3.00
2018-08-28T00:01:54.435Z,3.90
2018-08-28T00:02:54.452Z,4.40
2018-08-28T00:03:54.470Z,4.00
2018-08-28T00:04:54.489Z,3.40
2018-08-28T00:05:54.509Z,3.40
2018-08-28T00:06:54.525Z,3.30
2018-08-28T00:07:54.545Z,3.20
2018-08-28T00:08:54.566Z,3.30
2018-08-28T00:09:54.583Z,4.20
2018-08-28T00:10:54.600Z,3.90
2018-08-28T00:11:54.619Z,2.90
2018-08-28T00:12:54.636Z,3.70
2018-08-28T00:13:54.657Z,3.70
2018-08-28T00:14:54.675Z,3.10
2018-08-28T00:15:54.691Z,4.10
2018-08-28T00:16:54.736Z,4.50
2018-08-28T00:17:54.734Z,3.30
2018-08-28T00:18:54.750Z,4.80
2018-08-28T00:19:54.768Z,3.50
2018-08-28T00:20:54.789Z,3.00
2018-08-28T00:21:54.805Z,3.40
2018-08-28T00:22:54.821Z,3.60
2018-08-28T00:23:54.845Z,4.40
2018-08-28T00:24:54.860Z,3.30
2018-08-28T00:25:54.881Z,3.60
2018-08-28T00:26:54.899Z,3.40
2018-08-28T00:27:54.917Z,4.00
2018-08-28T00:28:54.932Z,4.30
2018-08-28T00:29:54.964Z,3.60
2018-08-28T00:30:54.970Z,3.20
2018-08-28T00:31:54.989Z,3.10
2018-08-28T00:32:55.007Z,3.80
2018-08-28T00:33:55.027Z,3.30
2018-08-28T00:34:55.045Z,4.30
2018-08-28T00:35:55.060Z,4.00
2018-08-28T00:36:55.079Z,2.60
2018-08-28T00:37:55.103Z,3.80
2018-08-28T00:38:55.119Z,4.00
2018-08-28T00:39:55.137Z,5.80
2018-08-28T00:40:55.154Z,4.10
2018-08-28T00:41:55.172Z,3.70
2018-08-28T00:42:55.188Z,2.80
2018-08-28T00:43:55.208Z,3.20
2018-08-28T00:44:55.228Z,3.40
2018-08-28T00:45:55.244Z,3.40
2018-08-28T00:46:55.263Z,3.70
2018-08-28T00:47:55.281Z,3.40
2018-08-28T00:48:55.301Z,3.10
2018-08-28T00:49:55.323Z,3.80
2018-08-28T00:50:55.337Z,3.30
2018-08-28T00:51:55.356Z,3.10
2018-08-28T00:52:55.374Z,3.80
2018-08-28T00:53:55.393Z,3.20
2018-08-28T00:54:55.411Z,3.10
2018-08-28T00:55:55.427Z,3.60
2018-08-28T00:56:55.444Z,5.00
2018-08-28T00:57:55.465Z,3.10
2018-08-28T00:58:55.482Z,3.90
2018-08-28T00:59:55.500Z,3.50
2018-08-28T01:00:55.518Z,4.20
2018-08-28T01:01:55.538Z,2.80
2018-08-28T01:02:55.555Z,3.80
2018-08-28T01:03:55.574Z,3.60
2018-08-28T01:04:55.595Z,3.40
2018-08-28T01:05:55.611Z,3.30
2018-08-28T01:06:55.629Z,3.50
2018-08-28T01:07:55.645Z,3.90
2018-08-28T01:08:55.664Z,4.00
2018-08-28T01:09:55.682Z,3.90
2018-08-28T01:10:55.701Z,5.50
2018-08-28T01:11:55.719Z,4.20
2018-08-28T01:12:55.738Z,5.30
2018-08-28T01:13:55.757Z,3.70
2018-08-28T01:14:55.775Z,3.40
2018-08-28T01:15:55.790Z,3.80
2018-08-28T01:16:55.810Z,3.00
2018-08-28T01:17:55.828Z,3.30
2018-08-28T01:18:55.846Z,3.70
2018-08-28T01:19:55.866Z,3.60
2018-08-28T01:20:55.884Z,4.50
2018-08-28T01:21:55.901Z,3.40
2018-08-28T01:22:55.919Z,3.60
2018-08-28T01:23:55.936Z,3.20
2018-08-28T01:24:55.956Z,3.70
2018-08-28T01:25:55.975Z,3.30
2018-08-28T01:26:55.989Z,4.00
2018-08-28T01:27:56.009Z,3.60
2018-08-28T01:28:56.031Z,3.60
2018-08-28T01:29:56.046Z,3.20
2018-08-28T01:30:56.067Z,4.20
2018-08-28T01:31:56.083Z,3.50
2018-08-28T01:32:56.101Z,5.00
2018-08-28T01:33:56.120Z,3.50
2018-08-28T01:34:56.137Z,3.60
2018-08-28T01:35:56.156Z,3.40
2018-08-28T01:36:56.171Z,3.30
2018-08-28T01:37:56.190Z,5.60
2018-08-28T01:38:56.210Z,4.00
2018-08-28T01:39:56.225Z,5.60
2018-08-28T01:40:56.245Z,4.70
2018-08-28T01:41:56.262Z,3.70
2018-08-28T01:42:56.279Z,3.40
2018-08-28T01:43:56.299Z,3.60
2018-08-28T01:44:56.316Z,4.10
2018-08-28T01:45:56.334Z,3.50
2018-08-28T01:46:56.353Z,3.80
2018-08-28T01:47:56.373Z,3.20
2018-08-28T01:48:56.388Z,3.70
2018-08-28T01:49:56.405Z,4.00
2018-08-28T01:50:56.425Z,3.60
2018-08-28T01:51:56.443Z,3.40
2018-08-28T01:52:56.460Z,3.70
2018-08-28T01:53:56.476Z,4.20
2018-08-28T01:54:56.494Z,4.10
2018-08-28T01:55:56.514Z,4.40
2018-08-28T01:56:56.532Z,3.90
2018-08-28T01:57:56.553Z,4.70
2018-08-28T01:58:56.623Z,6.40
2018-08-28T01:59:56.584Z,4.00
2018-08-28T02:00:56.602Z,5.70
2018-08-28T02:01:56.621Z,3.30
2018-08-28T02:02:56.640Z,3.70
2018-08-28T02:03:56.656Z,3.40
2018-08-28T02:04:56.673Z,3.50
2018-08-28T02:05:56.696Z,3.10
2018-08-28T02:06:56.710Z,3.90
2018-08-28T02:07:56.728Z,5.50
2018-08-28T02:08:56.746Z,3.40
2018-08-28T02:09:56.763Z,2.80
2018-08-28T02:10:56.781Z,3.60
2018-08-28T02:11:56.799Z,3.00
2018-08-28T02:12:56.816Z,4.60
2018-08-28T02:13:56.834Z,3.70
2018-08-28T02:14:56.853Z,3.90
2018-08-28T02:15:56.871Z,4.90
2018-08-28T02:16:56.889Z,3.60
2018-08-28T02:17:56.908Z,3.60
2018-08-28T02:18:56.925Z,3.20
2018-08-28T02:19:56.942Z,5.20
2018-08-28T02:20:56.960Z,3.70
2018-08-28T02:21:56.978Z,4.40
2018-08-28T02:22:56.997Z,3.70
2018-08-28T02:23:57.013Z,3.30
2018-08-28T02:24:57.031Z,3.80
2018-08-28T02:25:57.052Z,3.40
2018-08-28T02:26:57.067Z,4.50
2018-08-28T02:27:57.085Z,3.50
2018-08-28T02:28:57.104Z,3.90
2018-08-28T02:29:57.122Z,4.60
2018-08-28T02:30:57.140Z,5.30
2018-08-28T02:31:57.156Z,4.10
2018-08-28T02:32:57.175Z,4.30
2018-08-28T02:33:57.191Z,4.30
2018-08-28T02:34:57.209Z,4.70
2018-08-28T02:35:57.226Z,3.80
2018-08-28T02:36:57.244Z,4.10
2018-08-28T02:37:57.263Z,3.70
2018-08-28T02:38:57.279Z,3.30
2018-08-28T02:39:57.299Z,3.50
2018-08-28T02:40:57.320Z,3.50
2018-08-28T02:41:57.332Z,3.30
2018-08-28T02:42:57.348Z,3.70
2018-08-28T02:43:57.371Z,4.00
2018-08-28T02:44:57.387Z,5.00
2018-08-28T02:45:57.406Z,4.60
2018-08-28T02:46:57.424Z,3.50
2018-08-28T02:47:57.441Z,4.20
2018-08-28T02:48:57.459Z,4.10
2018-08-28T02:49:57.475Z,4.80
2018-08-28T02:50:57.492Z,3.90
2018-08-28T02:51:57.510Z,4.50
2018-08-28T02:52:57.527Z,3.80
2018-08-28T02:53:57.544Z,3.90
2018-08-28T02:54:57.569Z,3.60
2018-08-28T02:55:57.580Z,4.40
2018-08-28T02:56:57.598Z,3.40
2018-08-28T02:57:57.616Z,3.40
2018-08-28T02:58:57.634Z,4.10
2018-08-28T02:59:57.650Z,5.20
2018-08-28T03:00:57.669Z,4.30
2018-08-28T03:01:57.688Z,3.50
2018-08-28T03:02:57.717Z,5.10
2018-08-28T03:03:57.721Z,3.80
2018-08-28T03:04:57.738Z,4.10
2018-08-28T03:05:57.757Z,5.10
2018-08-28T03:06:57.773Z,4.20
2018-08-28T03:07:57.802Z,4.20
2018-08-28T03:08:57.813Z,4.00
2018-08-28T03:09:57.829Z,3.80
2018-08-28T03:10:57.844Z,3.40
2018-08-28T03:11:57.861Z,3.70
2018-08-28T03:12:57.880Z,3.80
2018-08-28T03:13:57.899Z,4.10
2018-08-28T03:14:57.915Z,3.60
2018-08-28T03:15:57.943Z,4.60
2018-08-28T03:16:57.953Z,5.10
2018-08-28T03:17:57.970Z,4.20
2018-08-28T03:18:57.985Z,4.30
2018-08-28T03:19:58.003Z,5.10
2018-08-28T03:20:58.022Z,3.80
2018-08-28T03:21:58.039Z,4.50
2018-08-28T03:22:58.059Z,5.50
2018-08-28T03:23:58.073Z,3.80
2018-08-28T03:24:58.088Z,8.40
2018-08-28T03:25:58.112Z,12.20
2018-08-28T03:26:58.127Z,6.50
2018-08-28T03:27:58.144Z,6.00
2018-08-28T03:28:58.243Z,4.30
2018-08-28T03:29:58.178Z,4.90
2018-08-28T03:30:58.196Z,3.90
2018-08-28T03:31:58.214Z,3.30
2018-08-28T03:32:58.232Z,4.10
2018-08-28T03:33:58.251Z,4.20
2018-08-28T03:34:58.267Z,6.30
2018-08-28T03:35:58.283Z,4.10
2018-08-28T03:36:58.303Z,4.00
2018-08-28T03:37:58.320Z,4.30
2018-08-28T03:38:58.337Z,3.50
2018-08-28T03:39:58.353Z,3.70
2018-08-28T03:40:58.374Z,3.40
2018-08-28T03:41:58.395Z,3.40
2018-08-28T03:42:58.407Z,3.10
2018-08-28T03:43:58.425Z,3.10
2018-08-28T03:44:58.442Z,3.60
2018-08-28T03:45:58.461Z,3.60
2018-08-28T03:46:58.477Z,3.40
2018-08-28T03:47:58.496Z,3.70
2018-08-28T03:48:58.512Z,4.50
2018-08-28T03:49:58.531Z,4.50
2018-08-28T03:50:58.546Z,4.50
2018-08-28T03:51:58.570Z,4.50
2018-08-28T03:52:58.583Z,3.40
2018-08-28T03:53:58.654Z,4.60
2018-08-28T03:54:58.616Z,4.00
2018-08-28T03:55:58.634Z,4.00
2018-08-28T03:56:58.651Z,3.90
2018-08-28T03:57:58.669Z,3.90
2018-08-28T03:58:58.684Z,3.50
2018-08-28T03:59:58.702Z,4.70
2018-08-28T04:00:58.721Z,5.80
2018-08-28T04:01:58.737Z,4.80
2018-08-28T04:02:58.755Z,3.40
2018-08-28T04:03:58.773Z,4.30
2018-08-28T04:04:58.789Z,6.60
2018-08-28T04:05:58.813Z,4.10
2018-08-28T04:06:58.825Z,5.30
2018-08-28T04:07:58.847Z,3.30
2018-08-28T04:08:58.858Z,4.40
2018-08-28T04:09:58.875Z,4.60
2018-08-28T04:10:58.891Z,5.80
2018-08-28T04:11:58.910Z,5.80
2018-08-28T04:12:58.925Z,4.40
2018-08-28T04:13:58.943Z,5.20
2018-08-28T04:14:58.961Z,3.40
2018-08-28T04:15:58.981Z,3.70
2018-08-28T04:16:59.010Z,4.60
2018-08-28T04:17:59.015Z,3.80
2018-08-28T04:18:59.030Z,3.50
2018-08-28T04:19:59.048Z,3.50
2018-08-28T04:20:59.065Z,3.50
2018-08-28T04:21:59.092Z,3.50
2018-08-28T04:22:59.105Z,4.00
2018-08-28T04:23:59.118Z,4.60
2018-08-28T04:24:59.138Z,4.40
2018-08-28T04:25:59.150Z,5.10
2018-08-28T04:26:59.169Z,3.70
2018-08-28T04:27:59.183Z,3.80
2018-08-28T04:28:59.202Z,4.50
2018-08-28T04:29:59.230Z,5.50
2018-08-28T04:30:59.344Z,3.80
2018-08-28T04:31:59.254Z,4.90
2018-08-28T04:32:59.273Z,3.60
2018-08-28T04:33:59.291Z,3.60
2018-08-28T04:34:59.305Z,4.80
2018-08-28T04:35:59.323Z,4.80
2018-08-28T04:36:59.340Z,5.00
2018-08-28T04:37:59.361Z,4.70
2018-08-28T04:38:59.373Z,3.70
2018-08-28T04:39:59.391Z,3.40
2018-08-28T04:40:59.409Z,3.40
2018-08-28T04:41:59.491Z,3.60
2018-08-28T04:42:59.443Z,4.40
2018-08-28T04:43:59.460Z,3.90
2018-08-28T04:44:59.479Z,5.00
2018-08-28T04:45:59.498Z,4.50
2018-08-28T04:46:59.515Z,4.20
2018-08-28T04:47:59.533Z,4.80
2018-08-28T04:48:59.611Z,4.90
2018-08-28T04:49:59.564Z,3.80
2018-08-28T04:50:59.582Z,4.50
2018-08-28T04:51:59.598Z,3.70
2018-08-28T04:52:59.617Z,3.90
2018-08-28T04:53:59.637Z,3.60
2018-08-28T04:54:59.698Z,4.00
2018-08-28T04:55:59.667Z,6.50
2018-08-28T04:56:59.683Z,3.50
2018-08-28T04:57:59.701Z,4.10
2018-08-28T04:58:59.717Z,4.50
2018-08-28T04:59:59.737Z,3.50
2018-08-28T05:00:59.753Z,4.00
2018-08-28T05:01:59.767Z,4.60
2018-08-28T05:02:59.785Z,3.60
2018-08-28T05:03:59.803Z,3.60
2018-08-28T05:04:59.820Z,3.90
2018-08-28T05:05:59.838Z,4.60
2018-08-28T05:06:59.853Z,5.20
2018-08-28T05:07:59.871Z,5.40
2018-08-28T05:08:59.890Z,4.70
2018-08-28T05:09:59.909Z,4.30
2018-08-28T05:10:59.924Z,6.00
2018-08-28T05:11:59.940Z,4.00
2018-08-28T05:12:59.957Z,4.60
2018-08-28T05:13:59.974Z,3.80
2018-08-28T05:14:59.991Z,3.70
2018-08-28T05:16:00.067Z,4.50
2018-08-28T05:17:00.026Z,3.70
2018-08-28T05:18:00.043Z,3.50
2018-08-28T05:19:00.059Z,3.80
2018-08-28T05:20:00.078Z,4.20
2018-08-28T05:21:00.094Z,4.20
2018-08-28T05:22:00.115Z,4.00
2018-08-28T05:23:00.126Z,4.80
2018-08-28T05:24:00.145Z,3.80
2018-08-28T05:25:00.168Z,5.50
2018-08-28T05:26:00.184Z,3.10
2018-08-28T05:27:00.196Z,5.10
2018-08-28T05:28:00.211Z,3.60
2018-08-28T05:29:00.230Z,3.30
2018-08-28T05:30:00.249Z,3.60
2018-08-28T05:31:00.265Z,5.50
2018-08-28T05:32:00.283Z,3.60
2018-08-28T05:33:00.299Z,3.40
2018-08-28T05:34:00.314Z,3.10
2018-08-28T05:35:00.333Z,4.50
2018-08-28T05:36:00.348Z,3.80
2018-08-28T05:37:00.366Z,4.90
2018-08-28T05:38:00.421Z,4.40
2018-08-28T05:39:00.402Z,4.00
2018-08-28T05:40:00.417Z,3.50
2018-08-28T05:41:00.434Z,4.10
2018-08-28T05:42:00.461Z,3.60
2018-08-28T05:43:00.474Z,4.90
2018-08-28T05:44:00.489Z,6.60
2018-08-28T05:45:00.503Z,3.60
2018-08-28T05:46:00.522Z,5.10
2018-08-28T05:47:00.537Z,3.80
2018-08-28T05:48:00.554Z,5.30
2018-08-28T05:49:00.573Z,3.10
2018-08-28T05:50:00.588Z,4.20
2018-08-28T05:51:00.607Z,3.70
2018-08-28T05:52:00.626Z,5.60
2018-08-28T05:53:00.695Z,3.50
2018-08-28T05:54:00.657Z,3.50
2018-08-28T05:55:00.673Z,3.40
2018-08-28T05:56:00.717Z,3.80
2018-08-28T05:57:00.708Z,3.90
2018-08-28T05:58:00.725Z,3.50
2018-08-28T05:59:00.741Z,6.70
2018-08-28T06:00:00.759Z,6.40
2018-08-28T06:01:00.777Z,3.80
2018-08-28T06:02:00.799Z,3.70
2018-08-28T06:03:00.837Z,2.90
2018-08-28T06:04:00.828Z,4.90
2018-08-28T06:05:00.844Z,4.30
2018-08-28T06:06:00.866Z,4.70
2018-08-28T06:07:00.880Z,4.00
2018-08-28T06:08:00.899Z,4.30
2018-08-28T06:09:00.995Z,5.00
2018-08-28T06:10:00.931Z,3.70
2018-08-28T06:11:00.950Z,4.10
2018-08-28T06:12:00.962Z,3.90
2018-08-28T06:13:00.983Z,4.30
2018-08-28T06:14:00.999Z,4.50
2018-08-28T06:15:01.017Z,4.70
2018-08-28T06:16:01.033Z,4.70
2018-08-28T06:17:01.051Z,4.40
2018-08-28T06:18:01.069Z,7.70
2018-08-28T06:19:01.085Z,4.00
2018-08-28T06:20:01.111Z,3.50
2018-08-28T06:21:01.120Z,6.90
2018-08-28T06:22:01.136Z,5.40
2018-08-28T06:23:01.235Z,7.00
2018-08-28T06:24:01.175Z,3.90
2018-08-28T06:25:01.187Z,4.90
2018-08-28T06:26:01.205Z,4.50
2018-08-28T06:27:01.221Z,3.80
2018-08-28T06:28:01.249Z,3.40
2018-08-28T06:29:01.258Z,3.70
2018-08-28T06:30:01.278Z,4.70
2018-08-28T06:31:01.292Z,3.80
2018-08-28T06:32:01.309Z,4.30
2018-08-28T06:33:01.326Z,4.20
2018-08-28T06:34:01.469Z,3.50
2018-08-28T06:35:01.364Z,3.40
2018-08-28T06:36:01.379Z,3.20
2018-08-28T06:37:01.401Z,3.70
2018-08-28T06:38:01.416Z,3.60
2018-08-28T06:39:01.433Z,3.80
2018-08-28T06:40:01.449Z,3.10
2018-08-28T06:41:01.466Z,4.10
2018-08-28T06:42:01.482Z,3.50
2018-08-28T06:43:01.507Z,3.70
2018-08-28T06:44:01.595Z,3.20
2018-08-28T06:45:01.542Z,3.50
2018-08-28T06:46:01.555Z,3.90
2018-08-28T06:47:01.571Z,4.60
2018-08-28T06:48:01.589Z,3.40
2018-08-28T06:49:01.608Z,3.60
2018-08-28T06:50:01.624Z,4.20
2018-08-28T06:51:01.639Z,3.80
2018-08-28T06:52:01.657Z,3.80
2018-08-28T06:53:01.677Z,5.00
2018-08-28T06:54:01.695Z,7.10
2018-08-28T06:55:01.709Z,3.80
2018-08-28T06:56:01.729Z,3.80
2018-08-28T06:57:01.747Z,3.00
2018-08-28T06:58:01.766Z,5.10
2018-08-28T06:59:01.787Z,4.60
2018-08-28T07:00:01.801Z,3.30
2018-08-28T07:01:01.816Z,4.10
2018-08-28T07:02:01.833Z,2.90
2018-08-28T07:03:01.851Z,3.20
2018-08-28T07:04:01.902Z,4.70
2018-08-28T07:05:01.893Z,4.60
2018-08-28T07:06:01.906Z,3.90
2018-08-28T07:07:01.922Z,3.60
2018-08-28T07:08:01.977Z,4.30
2018-08-28T07:09:01.960Z,4.30
2018-08-28T07:10:01.977Z,4.90
2018-08-28T07:11:01.991Z,4.70
2018-08-28T07:12:02.010Z,4.40
2018-08-28T07:13:02.027Z,4.60
2018-08-28T07:14:02.046Z,5.90
2018-08-28T07:15:02.062Z,3.10
2018-08-28T07:16:02.080Z,3.20
2018-08-28T07:17:02.103Z,4.30
2018-08-28T07:18:02.119Z,4.70
2018-08-28T07:19:02.137Z,3.60
2018-08-28T07:20:02.154Z,4.80
2018-08-28T07:21:02.168Z,4.20
2018-08-28T07:22:02.188Z,3.90
2018-08-28T07:23:02.206Z,3.10
2018-08-28T07:24:02.222Z,2.70
2018-08-28T07:25:02.239Z,3.00
2018-08-28T07:26:02.292Z,3.50
2018-08-28T07:27:02.276Z,3.30
2018-08-28T07:28:02.302Z,4.90
2018-08-28T07:29:02.311Z,2.50
2018-08-28T07:30:02.329Z,2.90
2018-08-28T07:31:02.345Z,3.40
2018-08-28T07:32:02.365Z,3.40
2018-08-28T07:33:02.382Z,9.30
2018-08-28T07:34:02.400Z,3.70
2018-08-28T07:35:02.419Z,3.50
2018-08-28T07:36:02.437Z,3.10
2018-08-28T07:37:02.507Z,3.20
2018-08-28T07:38:02.475Z,3.30
2018-08-28T07:39:02.491Z,4.90
2018-08-28T07:40:02.513Z,3.80
2018-08-28T07:41:02.526Z,3.70
2018-08-28T07:42:02.547Z,3.00
2018-08-28T07:43:02.567Z,3.40
2018-08-28T07:44:02.579Z,5.10
2018-08-28T07:45:02.600Z,7.90
2018-08-28T07:46:02.620Z,3.80
2018-08-28T07:47:02.635Z,4.60
2018-08-28T07:48:02.652Z,3.60
2018-08-28T07:49:02.672Z,3.70
2018-08-28T07:50:02.690Z,3.70
2018-08-28T07:51:02.708Z,3.20
2018-08-28T07:52:02.726Z,3.20
2018-08-28T07:53:02.743Z,3.80
2018-08-28T07:54:02.848Z,3.10
2018-08-28T07:55:02.792Z,3.30
2018-08-28T07:56:02.799Z,4.70
2018-08-28T07:57:02.818Z,3.50
2018-08-28T07:58:02.834Z,3.30
2018-08-28T07:59:02.853Z,3.00
2018-08-28T08:00:02.876Z,3.20
2018-08-28T08:01:02.892Z,3.20
2018-08-28T08:02:02.912Z,3.40
2018-08-28T08:03:02.927Z,4.20
2018-08-28T08:04:02.944Z,3.30
2018-08-28T08:05:02.964Z,3.40
2018-08-28T08:06:02.983Z,3.30
2018-08-28T08:07:03.000Z,3.40
2018-08-28T08:08:03.021Z,3.80
2018-08-28T08:09:03.038Z,3.20
2018-08-28T08:10:03.059Z,3.50
2018-08-28T08:11:03.076Z,3.20
2018-08-28T08:12:03.096Z,3.80
2018-08-28T08:13:03.109Z,4.40
2018-08-28T08:14:03.133Z,3.30
2018-08-28T08:15:03.147Z,3.20
2018-08-28T08:16:03.224Z,4.30
2018-08-28T08:17:03.193Z,3.60
2018-08-28T08:18:03.204Z,3.20
2018-08-28T08:19:03.224Z,3.20
2018-08-28T08:20:03.243Z,3.50
2018-08-28T08:21:03.263Z,3.20
2018-08-28T08:22:03.330Z,4.20
2018-08-28T08:23:03.299Z,3.10
2018-08-28T08:24:03.323Z,3.10
2018-08-28T08:25:03.336Z,3.60
2018-08-28T08:26:03.355Z,5.00
2018-08-28T08:27:03.374Z,3.80
2018-08-28T08:28:03.558Z,3.70
2018-08-28T08:29:03.413Z,3.30
2018-08-28T08:30:03.430Z,4.50
2018-08-28T08:31:03.449Z,3.70
2018-08-28T08:32:03.468Z,3.50
2018-08-28T08:33:03.494Z,3.20
2018-08-28T08:34:03.508Z,3.60
2018-08-28T08:35:03.527Z,4.80
2018-08-28T08:36:03.544Z,4.90
2018-08-28T08:37:03.563Z,3.70
2018-08-28T08:38:03.584Z,5.90
2018-08-28T08:39:03.602Z,3.50
2018-08-28T08:40:03.622Z,3.00
2018-08-28T08:41:03.644Z,3.80
2018-08-28T08:42:03.731Z,3.40
2018-08-28T08:43:03.677Z,3.10
2018-08-28T08:44:03.700Z,2.80
2018-08-28T08:45:03.740Z,4.60
2018-08-28T08:46:03.737Z,4.30
2018-08-28T08:47:03.760Z,4.20
2018-08-28T08:48:03.774Z,3.30
2018-08-28T08:49:03.799Z,3.40
2018-08-28T08:50:03.813Z,4.50
2018-08-28T08:51:03.834Z,4.90
2018-08-28T08:52:03.854Z,3.80
2018-08-28T08:53:03.871Z,3.30
2018-08-28T08:54:03.890Z,3.80
2018-08-28T08:55:04.138Z,3.10
2018-08-28T08:56:03.929Z,3.50
2018-08-28T08:57:03.950Z,4.90
2018-08-28T08:58:03.972Z,3.00
2018-08-28T08:59:03.989Z,3.80
2018-08-28T09:00:04.007Z,3.80
2018-08-28T09:01:04.031Z,3.60
2018-08-28T09:02:04.046Z,3.20
2018-08-28T09:03:04.066Z,4.80
2018-08-28T09:04:04.086Z,5.10
2018-08-28T09:05:04.106Z,4.30
2018-08-28T09:06:04.159Z,5.00
2018-08-28T09:07:04.148Z,5.00
2018-08-28T09:08:04.163Z,4.90
2018-08-28T09:09:04.184Z,3.50
2018-08-28T09:10:04.204Z,3.20
2018-08-28T09:11:04.223Z,3.20
2018-08-28T09:12:04.288Z,3.50
2018-08-28T09:13:04.261Z,4.70
2018-08-28T09:14:04.284Z,3.60
2018-08-28T09:15:04.306Z,5.10
2018-08-28T09:16:04.325Z,3.40
2018-08-28T09:17:04.341Z,3.90
2018-08-28T09:18:04.366Z,3.50
2018-08-28T09:19:04.380Z,3.60
2018-08-28T09:20:04.402Z,4.20
2018-08-28T09:21:04.421Z,3.40
2018-08-28T09:22:04.441Z,3.60
2018-08-28T09:23:04.459Z,3.50
2018-08-28T09:24:04.479Z,3.10
2018-08-28T09:25:04.499Z,3.50
2018-08-28T09:26:04.519Z,3.60
2018-08-28T09:27:04.542Z,3.80
2018-08-28T09:28:04.559Z,4.00
2018-08-28T09:29:04.578Z,3.50
2018-08-28T09:30:04.601Z,4.50
2018-08-28T09:31:04.654Z,3.50
2018-08-28T09:32:04.640Z,4.10
2018-08-28T09:33:04.660Z,3.60
2018-08-28T09:34:04.680Z,3.10
2018-08-28T09:35:04.701Z,3.70
2018-08-28T09:36:04.722Z,3.30
2018-08-28T09:37:04.742Z,3.80
2018-08-28T09:38:04.762Z,3.30
2018-08-28T09:39:04.782Z,3.70
2018-08-28T09:40:04.802Z,3.80
2018-08-28T09:41:04.824Z,3.60
2018-08-28T09:42:04.845Z,3.70
2018-08-28T09:43:04.864Z,2.90
2018-08-28T09:44:04.886Z,3.90
2018-08-28T09:45:04.909Z,3.30
2018-08-28T09:46:04.927Z,3.50
2018-08-28T09:47:04.946Z,3.00
2018-08-28T09:48:05.048Z,4.60
2018-08-28T09:49:04.989Z,3.40
2018-08-28T09:50:05.026Z,3.20
2018-08-28T09:51:05.060Z,3.20
2018-08-28T09:52:05.052Z,3.50
2018-08-28T09:53:05.073Z,4.00
2018-08-28T09:54:05.094Z,3.60
2018-08-28T09:55:05.117Z,3.60
2018-08-28T09:56:05.135Z,4.50
2018-08-28T09:57:05.158Z,3.50
2018-08-28T09:58:05.180Z,4.20
2018-08-28T09:59:05.199Z,3.60
2018-08-28T10:00:05.223Z,4.70
2018-08-28T10:01:05.242Z,3.30
2018-08-28T10:02:05.268Z,3.50
2018-08-28T10:03:05.286Z,3.60
2018-08-28T10:04:05.307Z,2.70
2018-08-28T10:05:05.329Z,3.70
2018-08-28T10:06:05.353Z,3.40
2018-08-28T10:07:05.375Z,3.00
2018-08-28T10:08:05.395Z,3.00
2018-08-28T10:09:05.417Z,2.80
2018-08-28T10:10:05.439Z,2.90
2018-08-28T10:11:05.561Z,3.40
2018-08-28T10:12:05.486Z,4.40
2018-08-28T10:13:05.505Z,4.00
2018-08-28T10:14:05.533Z,3.00
2018-08-28T10:15:05.550Z,2.70
2018-08-28T10:16:05.572Z,3.70
2018-08-28T10:17:05.599Z,3.60
2018-08-28T10:18:05.615Z,3.00
2018-08-28T10:19:05.636Z,2.60
2018-08-28T10:20:05.661Z,3.10
2018-08-28T10:21:05.784Z,3.30
2018-08-28T10:22:05.703Z,3.20
2018-08-28T10:23:05.732Z,3.10
2018-08-28T10:24:05.748Z,3.20
2018-08-28T10:25:05.774Z,4.30
2018-08-28T10:26:05.792Z,3.20
2018-08-28T10:27:05.815Z,3.30
2018-08-28T10:28:05.835Z,3.40
2018-08-28T10:29:05.866Z,4.30
2018-08-28T10:30:05.882Z,3.60
2018-08-28T10:31:05.905Z,3.40
2018-08-28T10:32:05.929Z,3.50
2018-08-28T10:33:05.951Z,3.10
2018-08-28T10:34:05.973Z,3.10
2018-08-28T10:35:05.996Z,3.60
2018-08-28T10:36:06.019Z,4.90
2018-08-28T10:37:06.048Z,4.00
2018-08-28T10:38:06.081Z,3.20
2018-08-28T10:39:06.086Z,2.90
2018-08-28T10:40:06.112Z,2.90
2018-08-28T10:41:06.131Z,4.00
2018-08-28T10:42:06.156Z,4.40
2018-08-28T10:43:06.177Z,2.70
2018-08-28T10:44:06.201Z,3.20
2018-08-28T10:45:06.225Z,5.30
2018-08-28T10:46:06.363Z,3.60
2018-08-28T10:47:06.268Z,3.30
2018-08-28T10:48:06.297Z,3.30
2018-08-28T10:49:06.322Z,2.80
2018-08-28T10:50:06.341Z,3.50
2018-08-28T10:51:06.364Z,2.90
2018-08-28T10:52:06.385Z,4.00
2018-08-28T10:53:06.410Z,4.40
2018-08-28T10:54:06.432Z,3.10
2018-08-28T10:55:06.457Z,3.30
2018-08-28T10:56:06.481Z,3.50
2018-08-28T10:57:06.507Z,4.20
2018-08-28T10:58:06.527Z,3.40
2018-08-28T10:59:06.551Z,3.60
2018-08-28T11:00:06.573Z,3.00
2018-08-28T11:01:06.598Z,4.20
2018-08-28T11:02:06.628Z,4.30
2018-08-28T11:03:06.645Z,5.00
2018-08-28T11:04:06.668Z,3.70
2018-08-28T11:05:06.696Z,4.60
2018-08-28T11:06:06.718Z,4.00
2018-08-28T11:07:06.743Z,4.00
2018-08-28T11:08:06.765Z,3.50
2018-08-28T11:09:06.792Z,3.30
2018-08-28T11:10:06.817Z,3.80
2018-08-28T11:11:06.840Z,3.40
2018-08-28T11:12:06.863Z,3.40
2018-08-28T11:13:06.887Z,5.10
2018-08-28T11:14:06.911Z,3.90
2018-08-28T11:15:06.936Z,3.90
2018-08-28T11:16:07.035Z,3.90
2018-08-28T11:17:06.983Z,3.20
2018-08-28T11:18:07.010Z,3.60
2018-08-28T11:19:07.032Z,3.00
2018-08-28T11:20:07.057Z,3.60
2018-08-28T11:21:07.080Z,5.20
2018-08-28T11:22:07.110Z,3.20
2018-08-28T11:23:07.129Z,3.90
2018-08-28T11:24:07.152Z,6.20
2018-08-28T11:25:07.178Z,2.90
2018-08-28T11:26:07.200Z,2.90
2018-08-28T11:27:07.224Z,3.60
2018-08-28T11:28:07.248Z,3.60
2018-08-28T11:29:07.272Z,3.20
2018-08-28T11:30:07.297Z,3.90
2018-08-28T11:31:07.324Z,2.80
2018-08-28T11:32:07.344Z,3.50
2018-08-28T11:33:07.371Z,5.30
2018-08-28T11:34:07.398Z,3.50
2018-08-28T11:35:07.418Z,3.10
2018-08-28T11:36:07.442Z,3.10
2018-08-28T11:37:07.467Z,4.50
2018-08-28T11:38:07.493Z,4.10
2018-08-28T11:39:07.514Z,3.30
2018-08-28T11:40:07.538Z,3.40
2018-08-28T11:41:07.565Z,3.60
2018-08-28T11:42:07.595Z,3.50
2018-08-28T11:43:07.612Z,4.60
2018-08-28T11:44:07.637Z,3.80
2018-08-28T11:45:07.662Z,3.20
2018-08-28T11:46:07.689Z,3.00
2018-08-28T11:47:07.718Z,4.40
2018-08-28T11:48:07.736Z,4.30
2018-08-28T11:49:07.760Z,3.50
2018-08-28T11:50:07.784Z,4.80
2018-08-28T11:51:07.811Z,3.70
2018-08-28T11:52:07.833Z,5.00
2018-08-28T11:53:07.941Z,3.20
2018-08-28T11:54:07.884Z,5.30
2018-08-28T11:55:07.907Z,3.60
2018-08-28T11:56:07.932Z,5.00
2018-08-28T11:57:07.961Z,3.30
2018-08-28T11:58:07.986Z,3.40
2018-08-28T11:59:08.009Z,4.70
2018-08-28T12:00:08.034Z,3.20
2018-08-28T12:01:08.061Z,4.00
2018-08-28T12:02:08.230Z,3.50
2018-08-28T12:03:08.111Z,4.20
2018-08-28T12:04:08.135Z,4.10
2018-08-28T12:05:08.223Z,3.20
2018-08-28T12:06:08.185Z,4.10
2018-08-28T12:07:08.219Z,3.30
2018-08-28T12:08:08.235Z,3.70
2018-08-28T12:09:08.261Z,3.70
2018-08-28T12:10:08.292Z,4.80
2018-08-28T12:11:08.314Z,3.90
2018-08-28T12:12:08.337Z,4.10
2018-08-28T12:13:08.455Z,5.80
2018-08-28T12:14:08.388Z,3.60
2018-08-28T12:15:08.416Z,4.20
2018-08-28T12:16:08.440Z,3.80
2018-08-28T12:17:08.466Z,4.50
2018-08-28T12:18:08.493Z,3.90
2018-08-28T12:19:08.517Z,4.10
2018-08-28T12:20:08.541Z,3.70
2018-08-28T12:21:08.589Z,4.30
2018-08-28T12:22:08.591Z,3.40
2018-08-28T12:23:08.616Z,3.50
2018-08-28T12:24:08.646Z,4.40
2018-08-28T12:25:08.669Z,5.10
2018-08-28T12:26:08.695Z,3.60
2018-08-28T12:27:08.720Z,4.10
2018-08-28T12:28:08.744Z,4.60
2018-08-28T12:29:08.771Z,7.40
2018-08-28T12:30:08.799Z,5.90
2018-08-28T12:31:08.820Z,5.70
2018-08-28T12:32:08.846Z,5.20
2018-08-28T12:33:08.878Z,5.20
2018-08-28T12:34:08.898Z,5.70
2018-08-28T12:35:08.923Z,5.10
2018-08-28T12:36:08.949Z,5.90
2018-08-28T12:37:09.029Z,5.80
2018-08-28T12:38:09.000Z,7.80
2018-08-28T12:39:09.026Z,6.30
2018-08-28T12:40:09.052Z,6.80
2018-08-28T12:41:09.077Z,6.50
2018-08-28T12:42:09.104Z,6.90
2018-08-28T12:43:09.128Z,5.80
2018-08-28T12:44:09.239Z,6.70
2018-08-28T12:45:09.180Z,5.80
2018-08-28T12:46:09.210Z,6.40
2018-08-28T12:47:09.229Z,7.50
2018-08-28T12:48:09.254Z,7.40
2018-08-28T12:49:09.281Z,8.00
2018-08-28T12:50:09.309Z,6.80
2018-08-28T12:51:09.355Z,5.70
2018-08-28T12:52:09.359Z,6.80
2018-08-28T12:53:09.385Z,6.40
2018-08-28T12:54:09.410Z,7.00
2018-08-28T12:55:09.436Z,8.20
2018-08-28T12:56:09.460Z,9.50
2018-08-28T12:57:09.487Z,8.40
2018-08-28T12:58:09.515Z,9.50
2018-08-28T12:59:09.538Z,7.90
2018-08-28T13:00:09.564Z,9.30
2018-08-28T13:01:09.593Z,10.40
2018-08-28T13:02:09.671Z,9.10
2018-08-28T13:03:09.643Z,9.80
2018-08-28T13:04:09.670Z,8.60
2018-08-28T13:05:09.698Z,7.80
2018-08-28T13:06:09.723Z,8.60
2018-08-28T13:07:09.761Z,8.30
2018-08-28T13:08:09.775Z,7.60
2018-08-28T13:09:09.801Z,8.60
2018-08-28T13:10:09.828Z,7.70
2018-08-28T13:11:09.858Z,7.50
2018-08-28T13:12:09.882Z,8.10
2018-08-28T13:13:09.910Z,9.10
2018-08-28T13:14:09.940Z,7.50
2018-08-28T13:15:09.971Z,9.00
2018-08-28T13:16:09.995Z,8.40
2018-08-28T13:17:10.017Z,9.30
2018-08-28T13:18:10.062Z,8.20
2018-08-28T13:19:10.074Z,9.60